Time;durP1;ratioP1;P1;durP2;ratioP2;P2;SDS_P1;SDS_P2;PMS_P1;PMS_P2;Temp;Humidity;BMP_temperature;BMP_pressure;BME280_temperature;BME280_humidity;BME280_pressure;Samples;Min_cycle;Max_cycle;Signal;HPM_P1;HPM_P2
2022/11/06 00:00:14;;;;;;;24.70;18.45;;;;;;;16.72;72.77;101340.47;4992401;28;20030;-86
2022/11/06 00:02:40;;;;;;;28.00;18.35;;;;;;;16.53;72.57;101308.94;4988426;28;20539;-85
2022/11/06 00:07:50;;;;;;;26.75;18.60;;;;;;;16.92;72.60;101380.81;5009067;28;20052;-86
2022/11/06 00:10:16;;;;;;;28.02;19.23;;;;;;;16.92;72.65;101380.81;5012677;28;20113;-86
2022/11/06 00:12:42;;;;;;;23.17;17.77;;;;;;;16.93;72.54;101382.59;5012556;28;20034;-85
2022/11/06 00:15:08;;;;;;;27.15;18.70;;;;;;;16.85;72.67;101369.13;5012669;28;20514;-84
2022/11/06 00:17:34;;;;;;;28.88;18.58;;;;;;;16.95;72.53;101375.63;4990946;28;20484;-85
2022/11/06 00:19:59;;;;;;;26.75;18.25;;;;;;;16.74;72.66;101341.38;5012276;28;20026;-85
2022/11/06 00:22:25;;;;;;;23.92;17.77;;;;;;;16.90;72.59;101366.66;4991749;28;20435;-85
2022/11/06 00:24:50;;;;;;;25.80;17.88;;;;;;;16.80;72.68;101346.00;4982591;28;20019;-85
2022/11/06 00:27:16;;;;;;;29.13;20.00;;;;;;;16.78;72.65;101345.03;5008726;28;20037;-84
2022/11/06 00:29:42;;;;;;;26.67;17.85;;;;;;;16.79;72.64;101349.50;5011696;28;20511;-85
2022/11/06 00:32:07;;;;;;;27.73;18.00;;;;;;;16.73;72.54;101330.81;5011929;28;20045;-84
2022/11/06 00:34:33;;;;;;;27.02;18.55;;;;;;;16.62;72.31;101318.09;4981478;28;20480;-85
2022/11/06 00:36:59;;;;;;;26.52;18.55;;;;;;;16.89;72.40;101351.69;4989231;28;20068;-85
2022/11/06 00:39:24;;;;;;;25.92;17.70;;;;;;;16.74;72.50;101340.50;5011814;28;20037;-84
2022/11/06 00:41:50;;;;;;;26.98;17.52;;;;;;;16.45;72.34;101287.56;5011299;28;20037;-85
2022/11/06 00:44:15;;;;;;;24.67;17.27;;;;;;;16.52;72.43;101291.31;5008386;28;20037;-85
2022/11/06 00:46:41;;;;;;;25.98;17.38;;;;;;;16.61;72.58;101305.75;5010566;28;20411;-85
2022/11/06 00:49:07;;;;;;;25.60;17.83;;;;;;;16.52;72.62;101286.94;4990618;28;20548;-85
2022/11/06 00:51:35;;;;;;;23.83;17.38;;;;;;;16.74;72.50;101317.66;5001069;28;20041;-85
2022/11/06 00:54:03;;;;;;;25.88;17.42;;;;;;;16.54;72.49;101281.75;4992403;28;20157;-85
2022/11/06 00:56:29;;;;;;;24.95;16.73;;;;;;;16.77;72.22;101316.88;4977215;28;20033;-86
2022/11/06 00:58:58;;;;;;;24.33;17.65;;;;;;;16.78;72.30;101324.84;5010726;28;20026;-85
2022/11/06 01:01:28;;;;;;;24.60;17.23;;;;;;;16.51;72.45;101271.06;5009519;28;20109;-85
2022/11/06 01:03:56;;;;;;;24.25;16.83;;;;;;;16.43;72.27;101250.59;5010117;28;20073;-86
2022/11/06 01:06:24;;;;;;;23.73;16.73;;;;;;;16.67;72.31;101284.00;4996057;28;20487;-85
2022/11/06 01:08:50;;;;;;;24.05;16.50;;;;;;;16.64;72.55;101292.69;4990221;28;20510;-85
2022/11/06 01:11:29;;;;;;;22.63;15.85;;;;;;;16.79;72.27;101316.09;4988943;28;20034;-86
2022/11/06 01:13:57;;;;;;;24.58;16.65;;;;;;;16.82;72.29;101310.97;4993086;28;20037;-85
2022/11/06 01:16:24;;;;;;;29.13;16.85;;;;;;;16.80;72.02;101304.72;4992586;28;20026;-85
2022/11/06 01:18:50;;;;;;;24.77;16.10;;;;;;;16.77;72.45;101301.97;4991333;28;20818;-85
2022/11/06 01:21:19;;;;;;;23.45;16.33;;;;;;;16.74;72.46;101306.22;4987057;28;20034;-85
2022/11/06 01:23:45;;;;;;;21.58;16.40;;;;;;;16.81;71.96;101308.28;4991142;28;20034;-85
2022/11/06 01:26:13;;;;;;;22.85;16.73;;;;;;;16.55;72.06;101265.06;4993073;28;20069;-84
2022/11/06 01:28:39;;;;;;;24.52;16.50;;;;;;;16.72;72.38;101294.69;4976169;28;20451;-85
2022/11/06 01:31:11;;;;;;;25.27;16.30;;;;;;;16.75;72.42;101294.84;4992168;28;20063;-85
2022/11/06 01:33:37;;;;;;;24.70;16.67;;;;;;;16.41;72.29;101241.72;4991655;28;20400;-86
2022/11/06 01:36:02;;;;;;;22.75;15.98;;;;;;;16.72;72.55;101300.91;5010561;28;20503;-86
2022/11/06 01:38:28;;;;;;;22.15;15.77;;;;;;;16.23;72.32;101222.56;5010050;28;20060;-85
2022/11/06 01:40:54;;;;;;;24.00;16.90;;;;;;;16.66;72.49;101292.75;5007456;28;20034;-86
2022/11/06 01:43:22;;;;;;;21.13;15.55;;;;;;;16.67;72.21;101284.88;4991766;28;20039;-85
2022/11/06 01:45:52;;;;;;;20.55;14.90;;;;;;;16.71;72.24;101292.91;4992051;28;20048;-85
2022/11/06 01:48:22;;;;;;;20.30;15.32;;;;;;;16.25;72.34;101226.16;4993178;28;20061;-85
2022/11/06 01:50:50;;;;;;;21.75;15.63;;;;;;;16.60;72.49;101293.41;4992932;28;20026;-85
2022/11/06 01:53:16;;;;;;;22.27;15.52;;;;;;;16.37;72.88;101246.81;4988749;28;20108;-86
2022/11/06 01:55:44;;;;;;;21.95;15.73;;;;;;;16.67;72.61;101303.34;4978737;28;20038;-85
2022/11/06 01:58:12;;;;;;;20.77;15.30;;;;;;;16.71;72.29;101300.84;4992504;28;20030;-86
2022/11/06 02:00:38;;;;;;;22.70;15.38;;;;;;;16.67;72.32;101298.06;4988780;28;20554;-85
2022/11/06 02:03:03;;;;;;;22.30;15.52;;;;;;;16.61;72.62;101304.84;4992559;28;20021;-85
2022/11/06 02:05:29;;;;;;;20.92;14.82;;;;;;;16.54;72.46;101290.53;4984719;28;20042;-85
2022/11/06 02:07:55;;;;;;;29.48;15.40;;;;;;;16.64;72.23;101310.25;4970346;28;20031;-86
2022/11/06 02:10:21;;;;;;;21.73;14.60;;;;;;;16.22;72.02;101229.59;4980109;28;20531;-86
2022/11/06 02:13:11;;;;;;;22.98;15.23;;;;;;;16.54;72.67;101287.00;4989008;28;20419;-86
2022/11/06 02:15:48;;;;;;;24.23;15.18;;;;;;;16.50;72.57;101286.00;4978032;28;20042;-86
2022/11/06 02:18:33;;;;;;;;;;;;;;;16.61;72.66;101297.81;4990523;28;20118;-86
2022/11/06 02:21:16;;;;;;;22.50;14.52;;;;;;;16.56;72.63;101296.78;4988396;28;20016;-86
2022/11/06 02:23:53;;;;;;;21.95;14.45;;;;;;;16.58;72.72;101300.38;4985606;28;20038;-86
2022/11/06 02:26:28;;;;;;;19.73;14.40;;;;;;;16.57;72.76;101306.47;4990959;28;20037;-86
2022/11/06 02:29:01;;;;;;;23.92;14.25;;;;;;;16.48;72.56;101295.56;4983282;28;20030;-85
2022/11/06 02:31:29;;;;;;;24.95;13.98;;;;;;;16.45;72.74;101292.84;4986854;28;20038;-86
2022/11/06 02:34:05;;;;;;;21.13;13.93;;;;;;;16.58;72.47;101307.38;4985547;28;20031;-86
2022/11/06 02:36:34;;;;;;;18.38;13.50;;;;;;;16.54;72.67;101306.34;4986467;28;20172;-86
2022/11/06 02:39:02;;;;;;;18.88;13.52;;;;;;;16.55;72.45;101308.19;4987471;28;20030;-85
2022/11/06 02:41:33;;;;;;;19.15;14.27;;;;;;;16.55;72.61;101313.44;4979916;28;20158;-85
2022/11/06 02:43:59;;;;;;;21.95;13.85;;;;;;;16.43;72.72;101294.50;4986033;28;20025;-85
2022/11/06 02:46:45;;;;;;;;;;;;;;;16.55;72.47;101305.53;4985457;28;20030;-85
2022/11/06 02:49:27;;;;;;;20.42;13.65;;;;;;;16.35;72.69;101282.78;4988779;28;19922;-85
2022/11/06 02:51:57;;;;;;;18.85;14.30;;;;;;;16.37;72.68;101287.25;4984849;28;20030;-85
2022/11/06 02:54:25;;;;;;;20.08;14.20;;;;;;;16.48;72.67;101303.47;4984044;28;20037;-85
2022/11/06 02:56:51;;;;;;;16.77;12.77;;;;;;;16.47;72.37;101305.22;4988680;28;20033;-85
2022/11/06 02:59:19;;;;;;;19.40;13.88;;;;;;;16.26;72.56;101273.66;4988513;28;20026;-85
2022/11/06 03:02:06;;;;;;;22.75;13.50;;;;;;;16.47;72.64;101307.88;4989958;28;20058;-85
2022/11/06 03:04:49;;;;;;;18.00;12.52;;;;;;;16.43;72.42;101290.13;4987895;28;20026;-85
2022/11/06 03:07:24;;;;;;;18.98;13.38;;;;;;;16.30;72.35;101274.69;4957993;28;20095;-85
2022/11/06 03:09:49;;;;;;;21.85;14.73;;;;;;;16.36;72.36;101282.84;4969427;28;20061;-85
2022/11/06 03:12:41;;;;;;;19.17;13.95;;;;;;;16.34;72.36;101271.34;4969446;28;20568;-85
2022/11/06 03:15:21;;;;;;;20.40;14.00;;;;;;;16.28;72.46;101269.34;4966239;28;20086;-85
2022/11/06 03:17:55;;;;;;;18.45;13.20;;;;;;;16.40;72.34;101279.47;4969178;28;20125;-85
2022/11/06 03:20:36;;;;;;;20.25;13.88;;;;;;;16.29;72.38;101273.78;4971106;28;20484;-85
2022/11/06 03:23:05;;;;;;;19.48;12.48;;;;;;;16.42;72.58;101297.97;4966556;28;20035;-86
2022/11/06 03:25:59;;;;;;;20.38;13.90;;;;;;;16.31;72.62;101273.84;4974340;28;20026;-86
2022/11/06 03:28:35;;;;;;;17.70;12.10;;;;;;;16.43;72.54;101297.16;4968230;28;20034;-86
2022/11/06 03:31:16;;;;;;;21.42;13.80;;;;;;;16.32;72.31;101280.00;4972133;28;20027;-86
2022/11/06 03:33:48;;;;;;;19.05;13.50;;;;;;;16.26;72.62;101286.84;4966791;28;20031;-85
2022/11/06 03:36:21;;;;;;;21.08;13.95;;;;;;;16.43;72.47;101312.97;4970504;28;20020;-85
2022/11/06 03:39:08;;;;;;;19.27;13.40;;;;;;;16.45;72.36;101316.56;4977485;28;20034;-85
2022/11/06 03:41:35;;;;;;;;;;;;;;;16.53;71.83;101319.47;4973195;28;20027;-85
2022/11/06 03:44:03;;;;;;;18.02;12.60;;;;;;;16.43;72.20;101308.59;4960302;28;20395;-85
2022/11/06 03:46:29;;;;;;;16.75;12.30;;;;;;;16.32;72.42;101301.09;4973209;28;20038;-85
2022/11/06 03:48:59;;;;;;;18.38;12.15;;;;;;;16.38;72.57;101320.69;4973297;28;20690;-85
2022/11/06 03:51:30;;;;;;;16.08;11.75;;;;;;;16.37;72.28;101310.09;4971241;28;20039;-85
2022/11/06 03:54:01;;;;;;;18.58;13.10;;;;;;;15.96;72.39;101236.47;4969211;28;20028;-85
2022/11/06 03:56:36;;;;;;;20.83;12.85;;;;;;;16.36;72.26;101310.91;4971952;28;20047;-84
2022/11/06 03:59:03;;;;;;;19.48;12.50;;;;;;;16.40;72.15;101323.38;4972738;28;20565;-84
2022/11/06 04:01:34;;;;;;;21.67;13.30;;;;;;;16.28;72.14;101308.00;4971514;28;20081;-84
2022/11/06 04:04:07;;;;;;;17.48;12.05;;;;;;;16.25;72.38;101297.31;4973086;28;20090;-86
2022/11/06 04:06:46;;;;;;;20.83;12.27;;;;;;;16.35;72.40;101299.47;4999923;28;20033;-86
2022/11/06 04:14:46;;;;;;;19.23;12.45;;;;;;;16.36;72.36;101301.28;5011032;28;20121;-85
2022/11/06 04:17:13;;;;;;;17.77;12.52;;;;;;;16.37;72.23;101307.44;4978615;28;20416;-85
2022/11/06 04:19:47;;;;;;;20.48;12.88;;;;;;;16.33;72.22;101297.63;4992599;28;20033;-84
2022/11/06 04:22:21;;;;;;;18.50;12.57;;;;;;;16.40;72.26;101300.56;4985452;28;20029;-87
2022/11/06 04:28:16;;;;;;;18.73;12.38;;;;;;;16.40;72.16;101292.66;4994785;28;20049;-86
2022/11/06 04:31:02;;;;;;;20.42;12.15;;;;;;;16.36;72.15;101298.66;4993730;28;20034;-85
2022/11/06 04:33:40;;;;;;;17.30;12.10;;;;;;;16.39;72.11;101298.75;5011171;28;20131;-84
2022/11/06 04:36:44;;;;;;;19.30;12.05;;;;;;;16.22;72.11;101270.84;4994557;28;20041;-84
2022/11/06 04:39:19;;;;;;;17.20;12.52;;;;;;;16.36;72.13;101290.75;4985572;28;20065;-87
2022/11/06 04:41:54;;;;;;;17.20;12.15;;;;;;;16.34;72.26;101291.50;5011320;28;20038;-86
2022/11/06 04:44:27;;;;;;;19.23;12.68;;;;;;;16.34;72.19;101291.50;5011603;28;20136;-86
2022/11/06 04:47:07;;;;;;;18.58;12.07;;;;;;;16.34;72.38;101299.41;4995407;28;20484;-86
2022/11/06 04:49:36;;;;;;;17.08;11.93;;;;;;;16.34;72.26;101302.03;4991209;28;20023;-85
2022/11/06 04:52:04;;;;;;;18.02;12.15;;;;;;;16.23;72.15;101280.53;4991042;28;20044;-85
2022/11/06 04:54:31;;;;;;;16.40;11.48;;;;;;;16.21;71.97;101276.94;5011228;28;20022;-86
2022/11/06 04:57:01;;;;;;;18.05;12.07;;;;;;;16.36;71.96;101300.38;4995162;28;20038;-83
2022/11/06 04:59:34;;;;;;;19.75;12.18;;;;;;;16.25;72.15;101300.84;4993160;28;20034;-83
2022/11/06 05:01:59;;;;;;;18.10;11.95;;;;;;;16.13;71.78;101276.66;4991905;28;20030;-82
2022/11/06 05:04:25;;;;;;;17.23;11.95;;;;;;;16.33;72.00;101319.59;5008707;28;20030;-83
2022/11/06 05:06:51;;;;;;;18.13;11.45;;;;;;;16.31;72.20;101329.19;5007687;28;20052;-83
2022/11/06 05:09:16;;;;;;;16.42;11.48;;;;;;;16.26;72.11;101329.00;5010393;28;20125;-83
2022/11/06 05:11:42;;;;;;;22.23;11.77;;;;;;;16.35;71.59;101348.66;5009287;28;20525;-84
2022/11/06 05:14:07;;;;;;;17.83;11.27;;;;;;;16.41;71.46;101352.44;4989650;28;20068;-85
2022/11/06 05:16:34;;;;;;;17.83;12.30;;;;;;;15.92;72.01;101283.69;5008650;28;20034;-82
2022/11/06 05:18:59;;;;;;;;;;;;;;;16.29;71.89;101358.09;4992735;28;20033;-82
2022/11/06 05:24:09;;;;;;;17.38;11.43;;;;;;;16.31;71.89;101352.00;5009423;28;20048;-82
2022/11/06 05:26:34;;;;;;;16.55;11.82;;;;;;;16.11;71.81;101328.41;4991243;28;20487;-82
2022/11/06 05:29:00;;;;;;;17.73;11.48;;;;;;;16.29;71.84;101363.38;5008924;28;20082;-83
2022/11/06 05:31:26;;;;;;;16.70;11.27;;;;;;;16.25;72.00;101374.63;5008508;28;20077;-83
2022/11/06 05:33:52;;;;;;;17.35;11.90;;;;;;;16.12;72.11;101351.25;4992507;28;20488;-84
2022/11/06 05:36:18;;;;;;;15.02;10.98;;;;;;;16.26;71.99;101367.66;5009878;28;20075;-86
2022/11/06 05:38:46;;;;;;;19.02;11.30;;;;;;;16.29;71.93;101365.13;4993722;28;20658;-83
2022/11/06 05:41:15;;;;;;;19.95;12.43;;;;;;;16.08;71.85;101344.06;5011721;28;20038;-84
2022/11/06 05:43:41;;;;;;;17.75;11.82;;;;;;;16.18;71.91;101355.91;5021784;28;20022;-83
2022/11/06 05:46:06;;;;;;;16.00;11.60;;;;;;;16.29;71.91;101388.84;5036134;28;20021;-84
2022/11/06 05:48:32;;;;;;;17.02;11.68;;;;;;;15.96;71.81;101343.56;5012323;28;20030;-83
2022/11/06 05:51:02;;;;;;;16.45;11.25;;;;;;;16.28;71.90;101390.59;5009861;28;20092;-83
2022/11/06 05:53:32;;;;;;;18.10;11.75;;;;;;;16.29;71.90;101392.38;5009540;28;20026;-83
2022/11/06 05:55:58;;;;;;;17.60;11.23;;;;;;;16.31;71.70;101395.06;4984652;28;21069;-83
2022/11/06 05:58:24;;;;;;;17.67;11.80;;;;;;;16.21;71.94;101403.44;5008397;28;20040;-83
2022/11/06 06:00:49;;;;;;;13.90;10.98;;;;;;;16.05;71.84;101373.84;4991069;28;20037;-83
2022/11/06 06:03:15;;;;;;;16.67;11.98;;;;;;;16.04;71.87;101372.06;5010271;28;20030;-83
2022/11/06 06:05:41;;;;;;;18.85;11.32;;;;;;;16.10;71.47;101384.56;5010006;28;20108;-83
2022/11/06 06:08:06;;;;;;;17.98;12.23;;;;;;;15.85;71.73;101337.84;4992893;28;20037;-84
2022/11/06 06:10:32;;;;;;;20.15;12.45;;;;;;;16.20;71.76;101404.28;5010404;28;20049;-83
2022/11/06 06:12:57;;;;;;;17.70;12.05;;;;;;;16.24;71.99;101414.13;5008060;28;20030;-83
2022/11/06 06:15:23;;;;;;;17.98;11.05;;;;;;;16.28;71.68;101416.94;5009449;28;20026;-83
2022/11/06 06:17:49;;;;;;;15.63;11.07;;;;;;;16.13;71.92;101384.69;4992790;28;20030;-83
2022/11/06 06:20:14;;;;;;;18.08;12.00;;;;;;;16.27;71.72;101414.22;5009707;28;20038;-82
2022/11/06 06:22:40;;;;;;;20.35;12.20;;;;;;;16.31;71.68;101425.81;4992403;28;20034;-82
2022/11/06 06:25:06;;;;;;;14.95;11.50;;;;;;;16.34;71.45;101410.09;5009940;28;20041;-83
2022/11/06 06:27:31;;;;;;;;;;;;;;;16.33;71.57;101416.22;4976534;28;20524;-83
2022/11/06 06:29:57;;;;;;;17.02;11.25;;;;;;;16.26;71.73;101418.63;5004943;28;19919;-83
2022/11/06 06:32:22;;;;;;;19.23;11.20;;;;;;;16.23;71.66;101418.50;5010373;28;20034;-83
2022/11/06 06:34:48;;;;;;;15.60;11.27;;;;;;;16.23;71.61;101422.84;5001835;28;20061;-83
2022/11/06 06:37:14;;;;;;;19.25;11.88;;;;;;;16.05;71.65;101388.75;5008326;28;20033;-84
2022/11/06 06:39:39;;;;;;;16.05;11.73;;;;;;;16.31;71.40;101423.19;5005694;28;20100;-83
2022/11/06 06:42:05;;;;;;;17.17;11.75;;;;;;;16.13;71.53;101405.78;5001895;28;20030;-83
2022/11/06 06:44:30;;;;;;;19.08;11.82;;;;;;;16.14;71.56;101409.31;4983228;28;20042;-83
2022/11/06 06:46:56;;;;;;;17.52;11.70;;;;;;;16.31;71.57;101431.09;4987720;28;20034;-82
2022/11/06 06:49:21;;;;;;;17.08;10.90;;;;;;;16.28;71.69;101432.75;5004037;28;20030;-82
2022/11/06 06:51:48;;;;;;;18.40;11.48;;;;;;;16.31;71.61;101431.97;5008255;28;20438;-88
2022/11/06 06:54:14;;;;;;;17.40;11.98;;;;;;;16.20;71.77;101415.72;4969826;28;20022;-89
2022/11/06 06:56:39;;;;;;;17.27;11.55;;;;;;;16.14;71.70;101418.09;4979353;28;20506;-88
2022/11/06 06:59:07;;;;;;;17.45;11.90;;;;;;;16.03;71.58;101383.41;4988940;28;20040;-87
2022/11/06 07:01:34;;;;;;;16.20;11.65;;;;;;;16.26;71.67;101428.25;4973047;28;20455;-90
2022/11/06 07:04:00;;;;;;;16.05;12.02;;;;;;;16.27;71.86;101427.41;4971349;28;20105;-89
2022/11/06 07:06:25;;;;;;;17.63;11.88;;;;;;;16.31;71.49;101407.38;4992359;28;20466;-83
2022/11/06 07:08:54;;;;;;;20.42;12.80;;;;;;;16.22;71.70;101403.50;4996832;28;20056;-86
2022/11/06 07:11:20;;;;;;;20.95;13.50;;;;;;;16.28;72.13;101416.06;4992086;28;20455;-86
2022/11/06 07:13:47;;;;;;;25.45;12.20;;;;;;;16.22;72.44;101411.41;4990912;28;20042;-85
2022/11/06 07:16:14;;;;;;;27.50;13.82;;;;;;;16.00;72.34;101380.66;5010623;28;20113;-87
2022/11/06 07:18:40;;;;;;;24.33;13.68;;;;;;;16.07;72.08;101366.88;5010267;28;20033;-83
2022/11/06 07:21:07;;;;;;;22.50;13.32;;;;;;;16.23;71.75;101386.88;5010351;28;20035;-84
2022/11/06 07:23:34;;;;;;;23.33;13.60;;;;;;;16.18;72.08;101398.94;4993412;28;20168;-83
2022/11/06 07:26:00;;;;;;;20.50;12.95;;;;;;;16.35;72.36;101430.38;4991226;28;20023;-80
2022/11/06 07:28:26;;;;;;;25.38;13.90;;;;;;;16.32;72.27;101424.97;4988495;28;20022;-83
2022/11/06 07:30:52;;;;;;;23.70;13.68;;;;;;;16.16;72.94;101395.34;5012402;28;20034;-83
2022/11/06 07:33:17;;;;;;;23.35;13.38;;;;;;;16.11;73.44;101389.00;5013005;28;20030;-89
2022/11/06 07:35:43;;;;;;;27.88;14.05;;;;;;;16.18;73.03;101404.22;4985903;28;20419;-88
2022/11/06 07:38:08;;;;;;;21.75;12.65;;;;;;;16.29;73.00;101429.25;4995543;28;20384;-88
2022/11/06 07:40:35;;;;;;;30.95;13.52;;;;;;;16.27;72.39;101415.13;4995795;28;20030;-88
2022/11/06 07:43:05;;;;;;;26.65;14.70;;;;;;;16.35;73.03;101426.00;4993977;28;20028;-87
2022/11/06 07:45:31;;;;;;;29.48;14.25;;;;;;;16.42;72.66;101429.78;4993895;28;20084;-84
2022/11/06 07:47:58;;;;;;;23.50;14.18;;;;;;;16.28;72.80;101409.03;4995368;28;20026;-88
2022/11/06 07:50:24;;;;;;;27.38;14.70;;;;;;;16.32;72.94;101415.34;4979296;28;20435;-87
2022/11/06 07:52:50;;;;;;;30.02;14.13;;;;;;;16.45;72.57;101424.66;4976235;28;20033;-87
2022/11/06 07:55:16;;;;;;;27.95;14.63;;;;;;;16.37;72.73;101420.78;5012439;28;20018;-87
2022/11/06 07:57:41;;;;;;;25.00;13.88;;;;;;;16.42;72.72;101425.41;4993437;28;20033;-86
2022/11/06 08:00:08;;;;;;;26.60;14.40;;;;;;;16.43;72.65;101434.22;5012440;28;20084;-82
2022/11/06 08:02:34;;;;;;;25.65;14.40;;;;;;;16.31;72.77;101421.44;5009107;28;20096;-86
2022/11/06 08:04:59;;;;;;;;;;;;;;;16.43;72.89;101447.41;4976347;28;20030;-87
2022/11/06 08:07:25;;;;;;;29.23;15.20;;;;;;;16.25;73.11;101426.44;4994878;28;20405;-85
2022/11/06 08:09:51;;;;;;;24.80;14.27;;;;;;;16.09;72.78;101401.22;5012437;28;20057;-89
2022/11/06 08:12:16;;;;;;;24.17;14.25;;;;;;;15.93;72.92;101388.22;5010906;28;20045;-88
2022/11/06 08:14:42;;;;;;;28.38;15.45;;;;;;;16.06;74.67;101430.06;4978489;28;20447;-88
2022/11/06 08:17:08;;;;;;;27.33;15.32;;;;;;;16.10;73.63;101431.97;4994401;28;20467;-88
2022/11/06 08:19:34;;;;;;;27.25;15.15;;;;;;;16.13;73.35;101437.41;4995361;28;20018;-89
2022/11/06 08:21:59;;;;;;;32.20;15.43;;;;;;;16.12;73.80;101442.59;4994690;28;20051;-87
2022/11/06 08:24:25;;;;;;;24.75;14.80;;;;;;;16.05;73.55;101429.16;5012768;28;20037;-85
2022/11/06 08:26:50;;;;;;;29.10;15.40;;;;;;;16.07;73.98;101438.03;4994577;28;20034;-86
2022/11/06 08:29:16;;;;;;;24.33;14.27;;;;;;;15.88;74.00;101396.84;5012641;28;20025;-86
2022/11/06 08:31:42;;;;;;;25.58;14.60;;;;;;;16.20;73.79;101460.53;4991133;28;20405;-85
2022/11/06 08:34:08;;;;;;;28.45;15.13;;;;;;;16.25;73.47;101463.34;4974809;28;20030;-87
2022/11/06 08:36:43;;;;;;;;;;;;;;;16.26;73.53;101467.81;4973497;28;20030;-86
2022/11/06 08:39:10;;;;;;;26.80;14.60;;;;;;;16.25;74.02;101461.59;4994886;28;19932;-84
2022/11/06 08:41:35;;;;;;;;;;;;;;;16.26;74.48;101465.16;4993892;28;20038;-85
2022/11/06 08:44:01;;;;;;;24.25;14.30;;;;;;;16.21;74.16;101461.41;4989629;28;19987;-85
2022/11/06 08:46:27;;;;;;;30.65;15.60;;;;;;;15.92;73.92;101412.75;4987437;28;20539;-85
2022/11/06 08:48:52;;;;;;;;;;;;;;;16.33;73.28;101468.94;4988097;28;20070;-85
2022/11/06 08:51:18;;;;;;;28.10;15.48;;;;;;;16.03;73.39;101427.31;5011456;28;20516;-88
2022/11/06 08:53:44;;;;;;;29.15;15.23;;;;;;;16.22;74.47;101450.06;4993439;28;20473;-87
2022/11/06 08:56:09;;;;;;;30.50;15.95;;;;;;;16.11;73.52;101438.13;4978053;28;20026;-88
2022/11/06 08:58:37;;;;;;;26.63;15.82;;;;;;;16.30;73.25;101475.00;4989565;28;20045;-87
2022/11/06 09:01:02;;;;;;;27.10;16.17;;;;;;;16.33;74.72;101467.22;4975767;28;20138;-89
2022/11/06 09:03:28;;;;;;;27.50;14.80;;;;;;;16.20;74.31;101460.53;5005843;28;20109;-89
2022/11/06 09:05:54;;;;;;;26.95;16.10;;;;;;;15.89;74.32;101403.00;4988582;28;20108;-88
2022/11/06 09:08:19;;;;;;;28.95;16.20;;;;;;;16.21;75.73;101464.97;4988424;28;20037;-89
2022/11/06 09:10:46;;;;;;;30.35;17.17;;;;;;;15.95;75.84;101420.81;4994829;28;20031;-88
2022/11/06 09:13:12;;;;;;;25.75;15.70;;;;;;;15.71;75.67;101378.50;4979499;28;20113;-87
2022/11/06 09:15:38;;;;;;;25.55;15.02;;;;;;;15.70;74.85;101371.41;4990872;28;20073;-87
2022/11/06 09:18:04;;;;;;;26.02;15.88;;;;;;;16.31;74.57;101468.88;4974303;28;20491;-87
2022/11/06 09:20:35;;;;;;;27.98;15.95;;;;;;;16.28;75.83;101496.00;4971214;28;20029;-87
2022/11/06 09:23:03;;;;;;;26.35;14.73;;;;;;;16.37;74.63;101484.94;4968433;28;20500;-83
2022/11/06 09:25:29;;;;;;;27.27;15.52;;;;;;;16.23;74.24;101455.41;4973521;28;20492;-86
2022/11/06 09:27:54;;;;;;;26.05;15.15;;;;;;;16.35;74.18;101459.38;4992303;28;20032;-85
2022/11/06 09:30:21;;;;;;;26.17;14.43;;;;;;;16.44;74.47;101478.19;4988565;28;20109;-87
2022/11/06 09:32:53;;;;;;;23.95;14.85;;;;;;;16.49;74.18;101485.47;4989117;28;20034;-89
2022/11/06 09:35:22;;;;;;;24.17;14.82;;;;;;;16.16;74.46;101436.63;4972380;28;20026;-89
2022/11/06 09:37:48;;;;;;;28.40;15.18;;;;;;;16.37;75.01;101484.94;4990932;28;20027;-89
2022/11/06 09:40:20;;;;;;;26.58;15.13;;;;;;;16.38;75.55;101486.78;4974466;28;20085;-84
2022/11/06 09:42:55;;;;;;;30.70;16.10;;;;;;;16.47;75.31;101488.88;4968459;28;20484;-85
2022/11/06 09:45:22;;;;;;;27.40;15.27;;;;;;;16.32;75.32;101469.78;4985144;28;20093;-83
2022/11/06 09:47:53;;;;;;;26.23;14.82;;;;;;;16.42;74.34;101479.88;4990763;28;20029;-85
2022/11/06 09:50:26;;;;;;;24.33;14.80;;;;;;;16.49;74.80;101490.75;4986698;28;20022;-85
2022/11/06 09:53:03;;;;;;;29.02;15.55;;;;;;;16.19;75.15;101456.09;4981958;28;20034;-85
2022/11/06 09:55:33;;;;;;;26.30;15.13;;;;;;;16.33;75.18;101476.84;4990254;28;20129;-85
2022/11/06 09:58:04;;;;;;;24.42;14.70;;;;;;;16.07;74.81;101416.94;4990462;28;20129;-86
2022/11/06 10:00:30;;;;;;;26.17;15.63;;;;;;;16.41;75.29;101484.25;4974251;28;20082;-86
2022/11/06 10:03:04;;;;;;;32.90;16.38;;;;;;;16.31;76.46;101484.69;4968923;28;20046;-85
2022/11/06 10:05:32;;;;;;;27.95;14.98;;;;;;;16.42;75.32;101499.22;4985813;28;20042;-88
2022/11/06 10:08:22;;;;;;;27.60;14.65;;;;;;;16.33;75.21;101475.13;4969056;28;20034;-85
2022/11/06 10:11:01;;;;;;;29.52;14.32;;;;;;;16.08;75.30;101425.75;4984227;28;20072;-87
2022/11/06 10:13:41;;;;;;;29.15;14.90;;;;;;;16.17;76.09;101457.78;4988296;28;20039;-85
2022/11/06 10:16:43;;;;;;;27.33;15.23;;;;;;;16.41;75.42;101486.00;4990396;28;20065;-86
2022/11/06 10:19:18;;;;;;;29.30;16.50;;;;;;;16.38;76.25;101483.22;4964352;28;20419;-86
2022/11/06 10:22:15;;;;;;;26.63;14.50;;;;;;;16.27;75.34;101465.19;4974916;28;20031;-87
2022/11/06 10:25:19;;;;;;;31.10;14.55;;;;;;;16.28;77.00;101479.31;4979689;28;20038;-87
2022/11/06 10:28:01;;;;;;;27.08;14.85;;;;;;;16.31;77.06;101479.41;4980266;28;20096;-87
2022/11/06 10:30:34;;;;;;;25.75;15.15;;;;;;;16.23;76.97;101468.56;4980784;28;20031;-88
2022/11/06 10:33:23;;;;;;;25.63;14.30;;;;;;;16.15;77.42;101443.63;4984362;28;20030;-87
2022/11/06 10:36:12;;;;;;;29.33;15.55;;;;;;;16.26;77.68;101468.69;4986746;28;20035;-88
2022/11/06 10:38:41;;;;;;;29.70;16.08;;;;;;;16.13;77.67;101444.38;4984143;28;20705;-88
2022/11/06 10:41:22;;;;;;;29.58;15.38;;;;;;;16.22;78.16;101463.22;4987856;28;20022;-88
2022/11/06 10:43:55;;;;;;;32.42;15.88;;;;;;;16.26;78.06;101463.41;4984050;28;20027;-88
2022/11/06 10:46:29;;;;;;;32.75;16.25;;;;;;;16.28;77.56;101476.66;4969094;28;20076;-88
2022/11/06 10:48:58;;;;;;;30.33;15.23;;;;;;;16.20;78.47;101457.88;4985873;28;20519;-88
2022/11/06 10:51:54;;;;;;;32.47;16.10;;;;;;;16.26;78.89;101465.16;4988831;28;20068;-88
2022/11/06 10:54:44;;;;;;;31.17;15.20;;;;;;;16.28;78.06;101472.28;4987469;28;20026;-87
2022/11/06 10:57:25;;;;;;;27.52;15.48;;;;;;;16.28;77.94;101464.38;4985146;28;20031;-88
2022/11/06 10:59:51;;;;;;;28.88;14.73;;;;;;;16.31;77.51;101460.06;4985670;28;20073;-87
2022/11/06 11:02:31;;;;;;;27.38;15.35;;;;;;;16.36;76.68;101463.78;4981565;28;20502;-87
2022/11/06 11:04:56;;;;;;;26.98;14.35;;;;;;;15.96;76.45;101398.88;4981877;28;20499;-88
2022/11/06 11:07:22;;;;;;;30.25;14.70;;;;;;;16.37;76.04;101458.59;5002106;28;20051;-86
2022/11/06 11:09:49;;;;;;;27.40;14.63;;;;;;;16.48;75.64;101464.31;4981311;28;20030;-89
2022/11/06 11:12:41;;;;;;;28.70;14.52;;;;;;;16.35;77.23;101472.56;4983290;28;20559;-87
2022/11/06 11:15:10;;;;;;;26.25;14.65;;;;;;;16.37;78.01;101468.25;4982281;28;20030;-87
2022/11/06 11:17:36;;;;;;;29.17;14.25;;;;;;;16.22;77.99;101450.94;4990423;28;20539;-87
2022/11/06 11:20:03;;;;;;;27.98;14.55;;;;;;;16.25;79.35;101464.22;4989773;28;20111;-88
2022/11/06 11:22:29;;;;;;;28.40;14.85;;;;;;;16.30;77.81;101467.09;4991053;28;20033;-87
2022/11/06 11:25:06;;;;;;;26.42;13.82;;;;;;;16.43;76.91;101455.31;4980731;28;20027;-88
2022/11/06 11:27:45;;;;;;;28.00;14.32;;;;;;;16.30;78.49;101461.81;4986657;28;20046;-88
2022/11/06 11:30:20;;;;;;;32.00;15.48;;;;;;;16.34;78.89;101462.81;4988194;28;20070;-88
2022/11/06 11:32:45;;;;;;;30.80;15.05;;;;;;;16.32;79.70;101464.50;4972351;28;20788;-89
2022/11/06 11:35:17;;;;;;;29.63;15.00;;;;;;;16.19;79.00;101444.63;4985924;28;20049;-89
2022/11/06 11:37:42;;;;;;;26.05;14.57;;;;;;;16.25;80.74;101443.16;4975435;28;20073;-89